Time;durP1;ratioP1;P1;durP2;ratioP2;P2;SDS_P1;SDS_P2;PMS_P1;PMS_P2;Temp;Humidity;BMP_temperature;BMP_pressure;BME280_temperature;BME280_humidity;BME280_pressure;Samples;Min_cycle;Max_cycle;Signal;HPM_P1;HPM_P2
2021/12/21 00:00:49;;;;;;;6.82;3.22;;;1.10;97.50;;;;;;5093128;28;20032;-58
2021/12/21 00:03:15;;;;;;;5.07;3.10;;;1.10;97.60;;;;;;5074395;28;20028;-59
2021/12/21 00:05:41;;;;;;;7.95;2.55;;;1.10;97.60;;;;;;5074445;28;20046;-59
2021/12/21 00:08:12;;;;;;;6.82;3.20;;;1.10;97.70;;;;;;5092149;28;20024;-59
2021/12/21 00:10:39;;;;;;;6.15;2.92;;;1.00;97.60;;;;;;5092121;28;20024;-59
2021/12/21 00:13:38;;;;;;;7.13;3.05;;;1.00;97.70;;;;;;5092895;28;20043;-59
2021/12/21 00:18:39;;;;;;;6.55;3.15;;;0.90;97.80;;;;;;5092909;28;20071;-58
2021/12/21 00:21:13;;;;;;;7.93;3.53;;;0.90;97.80;;;;;;5092612;28;20044;-59
2021/12/21 00:23:46;;;;;;;9.75;3.88;;;0.90;97.80;;;;;;5092747;28;20035;-59
2021/12/21 00:26:17;;;;;;;7.45;4.07;;;0.80;97.80;;;;;;5092624;28;20023;-58
2021/12/21 00:28:55;;;;;;;10.55;3.58;;;0.80;97.80;;;;;;5092433;28;20039;-58
2021/12/21 00:31:21;;;;;;;9.00;3.97;;;0.80;97.80;;;;;;5092646;28;20153;-59
2021/12/21 00:33:48;;;;;;;7.40;4.22;;;0.70;97.80;;;;;;5092446;28;20081;-59
2021/12/21 00:36:16;;;;;;;7.00;3.58;;;0.70;97.90;;;;;;5092388;28;20028;-59
2021/12/21 00:38:42;;;;;;;9.13;3.47;;;0.70;97.90;;;;;;5092405;28;20387;-59
2021/12/21 00:41:07;;;;;;;8.55;3.83;;;0.70;97.90;;;;;;5092362;28;20024;-59
2021/12/21 00:43:33;;;;;;;9.95;3.97;;;0.60;98.20;;;;;;5092291;28;20038;-59
2021/12/21 00:45:59;;;;;;;11.27;4.20;;;0.60;97.90;;;;;;5092367;28;20032;-59
2021/12/21 00:48:30;;;;;;;7.53;4.20;;;0.60;97.90;;;;;;5092185;28;20070;-59
2021/12/21 00:50:57;;;;;;;10.85;3.80;;;0.50;97.90;;;;;;5074087;28;20024;-59
2021/12/21 00:53:23;;;;;;;8.90;3.92;;;0.50;98.00;;;;;;5074020;28;20028;-59
2021/12/21 00:55:49;;;;;;;7.30;3.22;;;0.50;98.00;;;;;;5092155;28;20476;-59
2021/12/21 00:58:15;;;;;;;7.95;3.60;;;0.50;98.00;;;;;;5092168;28;20038;-59
2021/12/21 01:00:40;;;;;;;7.55;3.72;;;0.50;98.10;;;;;;5092459;28;20099;-59
2021/12/21 01:03:10;;;;;;;7.68;3.50;;;0.40;98.10;;;;;;5073890;28;20056;-58
2021/12/21 01:05:57;;;;;;;7.90;3.25;;;0.40;98.10;;;;;;5092138;28;20024;-59
2021/12/21 01:08:26;;;;;;;6.47;3.97;;;0.40;98.00;;;;;;5091837;28;20093;-59
2021/12/21 01:11:09;;;;;;;6.90;3.25;;;0.40;98.10;;;;;;5092332;28;20028;-58
2021/12/21 01:13:48;;;;;;;8.95;3.42;;;0.30;98.40;;;;;;5091884;28;20107;-59
2021/12/21 01:19:01;;;;;;;10.20;4.47;;;0.30;98.20;;;;;;5091931;28;20028;-59
2021/12/21 01:21:32;;;;;;;9.00;3.75;;;0.30;98.20;;;;;;5094382;28;20055;-58
2021/12/21 01:26:55;;;;;;;6.57;3.30;;;0.20;98.20;;;;;;5096328;28;20020;-58
2021/12/21 01:29:51;;;;;;;9.80;4.35;;;0.20;98.30;;;;;;5095891;28;20024;-59
2021/12/21 01:35:10;;;;;;;8.95;3.85;;;0.00;98.30;;;;;;5096130;28;20035;-58
2021/12/21 01:40:34;;;;;;;9.07;4.47;;;0.00;98.50;;;;;;5095885;28;20495;-58
2021/12/21 01:43:23;;;;;;;9.88;4.47;;;-0.10;98.50;;;;;;5079543;28;20054;-58
2021/12/21 01:51:19;;;;;;;8.27;3.60;;;-0.10;98.70;;;;;;5095681;28;20093;-58
2021/12/21 01:53:46;;;;;;;7.80;3.63;;;-0.10;98.70;;;;;;5095383;28;20032;-58
2021/12/21 01:56:12;;;;;;;7.15;3.38;;;-0.10;98.70;;;;;;5095384;28;20024;-58
2021/12/21 01:58:39;;;;;;;6.43;3.38;;;-0.10;98.70;;;;;;5095400;28;20024;-59
2021/12/21 02:01:07;;;;;;;7.88;3.15;;;-0.10;98.70;;;;;;5095616;28;20016;-59
2021/12/21 02:03:33;;;;;;;8.45;3.55;;;-0.10;98.70;;;;;;5095312;28;20028;-58
2021/12/21 02:05:59;;;;;;;8.50;3.70;;;-0.10;98.70;;;;;;5095176;28;20392;-58
2021/12/21 02:08:25;;;;;;;9.70;4.07;;;-0.10;98.70;;;;;;5094889;28;20452;-59
2021/12/21 02:10:51;;;;;;;6.85;3.75;;;-0.10;98.70;;;;;;5095218;28;20429;-59
2021/12/21 02:13:17;;;;;;;6.70;3.72;;;-0.10;98.70;;;;;;5094957;28;20115;-58
2021/12/21 02:15:42;;;;;;;7.93;4.07;;;-0.10;98.70;;;;;;5076939;28;20028;-59
2021/12/21 02:18:33;;;;;;;6.47;3.22;;;-0.10;99.00;;;;;;5076886;28;20016;-58
2021/12/21 02:21:23;;;;;;;7.90;3.28;;;-0.10;98.70;;;;;;5095723;28;20040;-58
2021/12/21 02:23:49;;;;;;;6.25;3.95;;;-0.10;98.80;;;;;;5094470;28;20050;-58
2021/12/21 02:31:09;;;;;;;7.53;3.55;;;-0.20;98.80;;;;;;5094650;28;20154;-58
2021/12/21 02:33:35;;;;;;;6.53;3.75;;;-0.20;98.90;;;;;;5094340;28;20482;-58
2021/12/21 02:36:02;;;;;;;8.32;3.60;;;-0.20;98.90;;;;;;5094821;28;20032;-58
2021/12/21 02:38:28;;;;;;;8.77;3.60;;;-0.30;99.00;;;;;;5094534;28;20040;-58
2021/12/21 02:40:55;;;;;;;8.38;3.70;;;-0.30;99.00;;;;;;5094742;28;20030;-58
2021/12/21 02:43:21;;;;;;;6.07;3.72;;;-0.30;99.00;;;;;;5094371;28;20472;-58
2021/12/21 02:45:46;;;;;;;6.47;3.60;;;-0.30;99.10;;;;;;5094612;28;20051;-58
2021/12/21 02:48:12;;;;;;;7.72;3.90;;;-0.30;99.10;;;;;;5094388;28;20070;-58
2021/12/21 02:50:39;;;;;;;7.78;3.35;;;-0.30;99.10;;;;;;5094506;28;20027;-58
2021/12/21 02:53:06;;;;;;;6.57;3.63;;;-0.30;99.20;;;;;;5094257;28;20074;-58
2021/12/21 02:55:32;;;;;;;5.63;3.55;;;-0.30;99.20;;;;;;5094555;28;20089;-58
2021/12/21 02:57:58;;;;;;;6.50;3.70;;;-0.30;99.20;;;;;;5076252;28;20441;-59
2021/12/21 03:00:25;;;;;;;7.97;3.70;;;-0.30;99.30;;;;;;5094579;28;20028;-58
2021/12/21 03:02:52;;;;;;;6.28;3.40;;;-0.30;99.30;;;;;;5094096;28;20055;-58
2021/12/21 03:05:17;;;;;;;8.77;3.58;;;-0.40;99.30;;;;;;5094034;28;20480;-58
2021/12/21 03:10:14;;;;;;;5.70;3.35;;;-0.30;99.30;;;;;;5094127;28;20020;-58
2021/12/21 03:15:21;;;;;;;7.72;3.47;;;-0.40;99.30;;;;;;5093669;28;20024;-58
2021/12/21 03:17:47;;;;;;;;;;;-0.40;99.40;;;;;;5076142;28;20092;-58
2021/12/21 03:20:13;;;;;;;5.63;3.10;;;-0.40;99.40;;;;;;5094048;28;19915;-58
2021/12/21 03:22:39;;;;;;;7.10;3.45;;;-0.50;99.50;;;;;;5093909;28;20039;-58
2021/12/21 03:25:06;;;;;;;7.45;3.78;;;-0.40;99.50;;;;;;5093929;28;20028;-58
2021/12/21 03:27:31;;;;;;;8.05;3.80;;;-0.40;99.40;;;;;;5093660;28;20020;-58
2021/12/21 03:29:57;;;;;;;9.15;4.45;;;-0.40;99.40;;;;;;5093724;28;20042;-58
2021/12/21 03:32:23;;;;;;;9.48;4.35;;;-0.50;99.40;;;;;;5093612;28;20032;-58
2021/12/21 03:34:49;;;;;;;8.00;3.95;;;-0.40;99.40;;;;;;5093651;28;20034;-58
2021/12/21 03:37:15;;;;;;;9.93;4.00;;;-0.50;99.40;;;;;;5093647;28;20020;-58
2021/12/21 03:39:42;;;;;;;8.50;3.83;;;-0.50;99.50;;;;;;5093447;28;20103;-59
2021/12/21 03:42:08;;;;;;;5.97;4.15;;;-0.50;99.50;;;;;;5093371;28;20048;-58
2021/12/21 03:44:34;;;;;;;9.57;4.35;;;-0.50;99.50;;;;;;5092218;28;20483;-58
2021/12/21 03:46:59;;;;;;;7.65;4.03;;;-0.50;99.50;;;;;;5082689;28;20024;-58
2021/12/21 03:51:57;;;;;;;7.95;3.80;;;-0.60;99.50;;;;;;5072696;28;20032;-58
2021/12/21 03:54:23;;;;;;;5.97;3.58;;;-0.60;99.60;;;;;;5072863;28;20093;-58
2021/12/21 03:56:50;;;;;;;6.72;4.10;;;-0.50;99.60;;;;;;5086805;28;20028;-58
2021/12/21 03:59:16;;;;;;;10.38;4.38;;;-0.50;99.60;;;;;;5092900;28;20043;-58
2021/12/21 04:01:42;;;;;;;7.88;3.80;;;-0.60;99.60;;;;;;5092813;28;20460;-58
2021/12/21 04:04:08;;;;;;;7.15;3.90;;;-0.50;99.60;;;;;;5074572;28;20468;-58
2021/12/21 04:06:35;;;;;;;6.75;3.80;;;-0.60;99.60;;;;;;5092865;28;20062;-58
2021/12/21 04:09:02;;;;;;;8.75;3.78;;;-0.60;99.60;;;;;;5092741;28;20028;-58
2021/12/21 04:11:28;;;;;;;7.88;3.75;;;-0.70;99.70;;;;;;5092745;28;20020;-58
2021/12/21 04:13:54;;;;;;;6.30;3.15;;;-0.70;99.70;;;;;;5092676;28;20043;-58
2021/12/21 04:16:19;;;;;;;7.25;3.33;;;-0.70;99.70;;;;;;5074471;28;20028;-59
2021/12/21 04:18:45;;;;;;;7.00;3.50;;;-0.70;99.80;;;;;;5092650;28;20028;-58
2021/12/21 04:21:14;;;;;;;5.07;3.13;;;-0.70;99.70;;;;;;5092504;28;20048;-58
2021/12/21 04:23:41;;;;;;;6.32;3.15;;;-0.70;99.80;;;;;;5092542;28;20039;-58
2021/12/21 04:26:09;;;;;;;6.57;3.88;;;-0.80;99.80;;;;;;5092292;28;20479;-58
2021/12/21 04:28:35;;;;;;;7.53;3.75;;;-0.70;99.80;;;;;;5092565;28;20028;-59
2021/12/21 04:31:01;;;;;;;7.45;3.47;;;-0.80;99.80;;;;;;5092678;28;20361;-58
2021/12/21 04:33:28;;;;;;;8.48;3.85;;;-0.80;99.80;;;;;;5092281;28;20447;-58
2021/12/21 04:35:53;;;;;;;6.25;3.80;;;-0.80;99.90;;;;;;5092435;28;20020;-58
2021/12/21 04:38:25;;;;;;;5.35;3.00;;;-0.80;99.90;;;;;;5074361;28;20107;-59
2021/12/21 04:41:30;;;;;;;5.07;3.05;;;-0.80;99.90;;;;;;5092106;28;20024;-58
2021/12/21 04:43:53;;;;;;;5.53;2.83;;;-0.80;99.90;;;;;;5089063;28;20113;-59
2021/12/21 04:46:19;;;;;;;7.72;3.10;;;-0.90;99.90;;;;;;5092134;28;20020;-59
2021/12/21 04:48:45;;;;;;;6.88;3.50;;;-0.90;99.90;;;;;;5092261;28;20107;-58
2021/12/21 04:51:10;;;;;;;6.65;3.50;;;-0.90;99.90;;;;;;5092102;28;20017;-59
2021/12/21 04:53:36;;;;;;;5.78;3.78;;;-0.90;99.90;;;;;;5092167;28;20062;-58
2021/12/21 04:56:03;;;;;;;7.32;3.55;;;-0.90;99.90;;;;;;5073569;28;20028;-58
2021/12/21 04:58:29;;;;;;;7.80;3.55;;;-0.90;99.90;;;;;;5092373;28;20081;-58
2021/12/21 05:00:55;;;;;;;6.55;3.78;;;-0.90;99.90;;;;;;5092026;28;20071;-58
2021/12/21 05:03:20;;;;;;;6.63;3.78;;;-0.90;99.90;;;;;;5091866;28;20032;-58
2021/12/21 05:05:46;;;;;;;9.10;4.40;;;-0.90;99.90;;;;;;5073917;28;20031;-58
2021/12/21 05:08:19;;;;;;;7.80;3.78;;;-0.90;99.90;;;;;;5091755;28;20576;-58
2021/12/21 05:10:54;;;;;;;4.68;2.78;;;-0.90;99.90;;;;;;5092080;28;20017;-58
2021/12/21 05:13:22;;;;;;;6.22;2.85;;;-0.90;99.90;;;;;;5092022;28;20028;-58
2021/12/21 05:15:48;;;;;;;5.47;3.22;;;-1.00;99.90;;;;;;5091927;28;20036;-58
2021/12/21 05:18:15;;;;;;;6.05;3.42;;;-1.00;99.90;;;;;;5091894;28;20032;-58
2021/12/21 05:20:41;;;;;;;5.88;3.58;;;-1.00;99.90;;;;;;5091723;28;20056;-58
2021/12/21 05:23:08;;;;;;;10.70;3.83;;;-1.00;99.90;;;;;;5091943;28;20237;-58
2021/12/21 05:25:34;;;;;;;7.40;3.90;;;-1.00;99.90;;;;;;5091730;28;20561;-58
2021/12/21 05:28:00;;;;;;;8.02;4.10;;;-1.00;99.90;;;;;;5091682;28;20503;-58
2021/12/21 05:30:26;;;;;;;5.97;4.05;;;-1.00;99.90;;;;;;5073666;28;20016;-58
2021/12/21 05:32:53;;;;;;;8.18;4.50;;;-1.00;99.90;;;;;;5092256;28;20093;-58
2021/12/21 05:35:19;;;;;;;6.78;3.90;;;-1.10;99.90;;;;;;5091619;28;20503;-58
2021/12/21 05:37:47;;;;;;;10.07;4.63;;;-1.10;99.90;;;;;;5091691;28;20399;-58
2021/12/21 05:40:17;;;;;;;7.97;4.10;;;-1.10;99.90;;;;;;5091615;28;20024;-58
2021/12/21 05:42:46;;;;;;;11.25;5.60;;;-1.10;99.90;;;;;;5091615;28;20024;-58
2021/12/21 05:45:13;;;;;;;8.10;4.32;;;-1.10;99.90;;;;;;5091452;28;20057;-58
2021/12/21 05:47:39;;;;;;;6.15;4.25;;;-1.10;99.90;;;;;;5091638;28;20028;-58
2021/12/21 05:50:10;;;;;;;9.43;4.97;;;-1.10;99.90;;;;;;5091555;28;20426;-58
2021/12/21 05:52:35;;;;;;;9.73;4.35;;;-1.10;99.90;;;;;;5073616;28;20357;-58
2021/12/21 05:55:03;;;;;;;11.65;6.00;;;-1.10;99.90;;;;;;5091500;28;20039;-58
2021/12/21 05:57:28;;;;;;;9.02;4.78;;;-1.10;99.90;;;;;;5073335;28;20365;-58
2021/12/21 05:59:54;;;;;;;7.15;4.60;;;-1.10;99.90;;;;;;5071011;28;20031;-58
2021/12/21 06:02:19;;;;;;;10.75;4.63;;;-1.10;99.90;;;;;;5053047;28;20063;-58
2021/12/21 06:04:45;;;;;;;9.48;4.68;;;-1.10;99.90;;;;;;5071606;28;20021;-58
2021/12/21 06:07:10;;;;;;;8.57;4.80;;;-1.20;99.90;;;;;;5077831;28;20052;-58
2021/12/21 06:09:36;;;;;;;9.48;5.50;;;-1.10;99.90;;;;;;5095281;28;20069;-58
2021/12/21 06:12:15;;;;;;;9.43;4.65;;;-1.20;99.90;;;;;;5076913;28;20365;-58
2021/12/21 06:23:16;;;;;;;9.68;5.03;;;-1.20;99.90;;;;;;5094947;28;20081;-58
2021/12/21 06:25:57;;;;;;;11.80;5.03;;;-1.20;99.90;;;;;;5094547;28;20024;-58
2021/12/21 06:28:23;;;;;;;10.88;5.03;;;-1.30;99.90;;;;;;5094516;28;20095;-58
2021/12/21 06:30:50;;;;;;;9.48;5.75;;;-1.30;99.90;;;;;;5094262;28;20502;-58
2021/12/21 06:33:16;;;;;;;9.00;4.95;;;-1.30;99.90;;;;;;5094489;28;20032;-58
2021/12/21 06:35:43;;;;;;;9.07;5.30;;;-1.30;99.90;;;;;;5076590;28;20107;-58
2021/12/21 06:38:10;;;;;;;10.18;5.32;;;-1.30;99.90;;;;;;5094551;28;20028;-58
2021/12/21 06:40:36;;;;;;;11.32;6.40;;;-1.30;99.90;;;;;;5094731;28;20027;-58
2021/12/21 06:43:03;;;;;;;11.40;5.95;;;-1.30;99.90;;;;;;5076087;28;20028;-58
2021/12/21 06:53:36;;;;;;;9.05;5.35;;;-1.40;99.90;;;;;;5091818;28;20094;-58
2021/12/21 06:56:03;;;;;;;8.57;5.05;;;-1.40;99.90;;;;;;5091691;28;20105;-58
2021/12/21 06:58:28;;;;;;;11.50;5.72;;;-1.40;99.90;;;;;;5091639;28;20115;-58
2021/12/21 07:00:54;;;;;;;11.43;5.68;;;-1.40;99.90;;;;;;5093456;28;20107;-58
2021/12/21 07:03:21;;;;;;;9.10;5.80;;;-1.30;99.90;;;;;;5093595;28;20028;-58
2021/12/21 07:05:50;;;;;;;11.10;6.38;;;-1.40;99.90;;;;;;5094051;28;20069;-58
2021/12/21 07:08:21;;;;;;;11.23;6.25;;;-1.40;99.90;;;;;;5094179;28;20436;-58
2021/12/21 07:18:59;;;;;;;8.23;5.25;;;-1.40;99.90;;;;;;5093976;28;20395;-58
2021/12/21 07:21:26;;;;;;;11.40;5.85;;;-1.40;99.90;;;;;;5093881;28;20036;-58
2021/12/21 07:23:51;;;;;;;9.60;4.95;;;-1.40;99.90;;;;;;5093655;28;20139;-58
2021/12/21 07:26:17;;;;;;;7.70;5.10;;;-1.40;99.90;;;;;;5093856;28;20597;-58
2021/12/21 07:28:43;;;;;;;9.85;5.57;;;-1.40;99.90;;;;;;5093731;28;20496;-58
2021/12/21 07:31:09;;;;;;;11.60;5.10;;;-1.40;99.90;;;;;;5093495;28;20101;-58
2021/12/21 07:33:35;;;;;;;9.50;5.00;;;-1.50;99.90;;;;;;5093663;28;20059;-59
2021/12/21 07:36:01;;;;;;;8.05;5.03;;;-1.50;99.90;;;;;;5093685;28;20031;-58
2021/12/21 07:38:30;;;;;;;6.57;4.43;;;-1.50;99.90;;;;;;5093475;28;20028;-58
2021/12/21 07:40:59;;;;;;;9.70;4.90;;;-1.50;99.90;;;;;;5075521;28;20024;-58
2021/12/21 07:43:25;;;;;;;9.35;5.70;;;-1.50;99.90;;;;;;5093338;28;20028;-58
2021/12/21 07:45:51;;;;;;;9.60;6.05;;;-1.50;99.90;;;;;;5093347;28;20024;-58
2021/12/21 07:48:17;;;;;;;9.93;5.82;;;-1.50;99.90;;;;;;5093074;28;20027;-58
2021/12/21 07:50:43;;;;;;;9.20;5.18;;;-1.50;99.90;;;;;;5093366;28;20338;-58
2021/12/21 07:53:09;;;;;;;8.15;4.72;;;-1.50;99.90;;;;;;5093122;28;20060;-58
2021/12/21 07:55:34;;;;;;;7.88;4.90;;;-1.50;99.90;;;;;;5093256;28;20035;-58
2021/12/21 07:58:00;;;;;;;9.63;5.35;;;-1.50;99.90;;;;;;5093158;28;20081;-58
2021/12/21 08:00:26;;;;;;;8.10;5.30;;;-1.50;99.90;;;;;;5074669;28;20487;-58
2021/12/21 08:02:53;;;;;;;11.10;5.28;;;-1.50;99.90;;;;;;5092919;28;20063;-58
2021/12/21 08:05:19;;;;;;;8.63;5.50;;;-1.50;99.90;;;;;;5093061;28;20107;-58
2021/12/21 08:07:51;;;;;;;9.90;5.80;;;-1.50;99.90;;;;;;5093085;28;20439;-58
2021/12/21 08:10:22;;;;;;;10.70;5.13;;;-1.40;99.90;;;;;;5091905;28;20077;-58
2021/12/21 08:12:48;;;;;;;13.63;6.45;;;-1.40;99.90;;;;;;5090184;28;20024;-58
2021/12/21 08:15:13;;;;;;;10.77;5.90;;;-1.50;99.90;;;;;;5082977;28;20024;-58
2021/12/21 08:17:39;;;;;;;7.53;5.00;;;-1.40;99.90;;;;;;5090870;28;20063;-58
2021/12/21 08:20:05;;;;;;;11.20;6.13;;;-1.40;99.90;;;;;;5091484;28;20056;-58
2021/12/21 08:22:30;;;;;;;11.20;5.78;;;-1.40;99.90;;;;;;5091353;28;20077;-58
2021/12/21 08:24:56;;;;;;;13.02;6.55;;;-1.30;99.90;;;;;;5088901;28;20028;-58
2021/12/21 08:27:21;;;;;;;9.68;6.15;;;-1.30;99.90;;;;;;5092709;28;20028;-58
2021/12/21 08:29:48;;;;;;;8.75;5.90;;;-1.30;99.90;;;;;;5092329;28;20460;-58
2021/12/21 08:32:14;;;;;;;9.38;6.20;;;-1.30;99.90;;;;;;5073875;28;20042;-58
2021/12/21 08:34:39;;;;;;;13.75;6.93;;;-1.20;99.90;;;;;;5092521;28;20114;-58
2021/12/21 08:37:05;;;;;;;14.65;6.80;;;-1.20;99.90;;;;;;5072475;28;20016;-58
2021/12/21 08:39:38;;;;;;;11.20;6.53;;;-1.20;99.90;;;;;;5091715;28;20107;-58
2021/12/21 08:42:11;;;;;;;9.45;6.18;;;-1.10;99.90;;;;;;5074092;28;20114;-57
2021/12/21 08:44:36;;;;;;;10.65;6.82;;;-1.10;99.90;;;;;;5075354;28;20074;-58
2021/12/21 08:47:03;;;;;;;12.35;7.38;;;-1.10;99.90;;;;;;5092114;28;20414;-58
2021/12/21 08:49:29;;;;;;;11.10;6.80;;;-1.00;99.90;;;;;;5092149;28;20020;-59
2021/12/21 08:51:56;;;;;;;12.52;7.70;;;-1.00;99.90;;;;;;5074389;28;20028;-58
2021/12/21 08:54:21;;;;;;;10.95;6.10;;;-1.00;99.90;;;;;;5091978;28;20473;-58
2021/12/21 08:56:48;;;;;;;11.18;6.82;;;-1.00;99.90;;;;;;5092004;28;20028;-58
2021/12/21 08:59:15;;;;;;;12.35;7.70;;;-0.90;99.90;;;;;;5091765;28;20024;-58
2021/12/21 09:01:42;;;;;;;11.27;7.22;;;-0.80;99.90;;;;;;5092041;28;20016;-59
2021/12/21 09:04:07;;;;;;;10.73;7.63;;;-0.80;99.90;;;;;;5092258;28;20039;-58
2021/12/21 09:06:33;;;;;;;14.15;6.72;;;-0.70;99.90;;;;;;5091947;28;20432;-58
2021/12/21 09:08:58;;;;;;;14.32;7.18;;;-0.70;99.90;;;;;;5073609;28;20024;-59
2021/12/21 09:11:24;;;;;;;12.80;7.82;;;-0.60;99.90;;;;;;5090908;28;20032;-58
2021/12/21 09:13:49;;;;;;;10.52;6.60;;;-0.60;99.90;;;;;;5090671;28;20028;-58
2021/12/21 09:16:15;;;;;;;12.95;6.60;;;-0.60;99.90;;;;;;5090979;28;20077;-59
2021/12/21 09:18:41;;;;;;;10.27;5.82;;;-0.50;99.90;;;;;;5090394;28;20028;-59
2021/12/21 09:21:06;;;;;;;10.32;6.30;;;-0.50;99.90;;;;;;5072484;28;20094;-58
2021/12/21 09:23:32;;;;;;;11.93;6.55;;;-0.40;99.90;;;;;;5070069;28;20090;-59
2021/12/21 09:25:57;;;;;;;11.65;6.13;;;-0.40;99.90;;;;;;5090571;28;20097;-58
2021/12/21 09:28:23;;;;;;;10.48;6.78;;;-0.30;99.90;;;;;;5086736;28;20430;-58
2021/12/21 09:30:48;;;;;;;12.18;7.93;;;-0.20;99.90;;;;;;5083289;28;20034;-58
2021/12/21 09:33:14;;;;;;;11.50;6.80;;;-0.10;99.90;;;;;;5088095;28;20032;-59
2021/12/21 09:35:40;;;;;;;12.60;7.20;;;0.00;99.90;;;;;;5091102;28;20468;-58
2021/12/21 09:38:06;;;;;;;12.20;7.88;;;0.00;99.90;;;;;;5091640;28;20448;-58
2021/12/21 09:40:38;;;;;;;12.60;7.45;;;0.10;99.90;;;;;;5073330;28;20495;-58
2021/12/21 09:43:06;;;;;;;12.73;7.72;;;0.30;99.90;;;;;;5093228;28;20175;-58
2021/12/21 09:45:31;;;;;;;13.55;7.88;;;0.40;99.90;;;;;;5095583;28;20047;-59
2021/12/21 09:47:57;;;;;;;17.50;8.20;;;0.50;99.90;;;;;;5095530;28;20062;-58
2021/12/21 09:50:25;;;;;;;14.80;9.82;;;0.60;99.90;;;;;;5095710;28;20380;-59
2021/12/21 09:52:54;;;;;;;13.43;10.00;;;0.80;99.90;;;;;;5095465;28;20360;-58
2021/12/21 09:55:20;;;;;;;14.93;9.60;;;0.90;99.90;;;;;;5095225;28;20032;-59
2021/12/21 09:57:50;;;;;;;17.08;8.75;;;1.10;99.90;;;;;;5095418;28;20346;-58
2021/12/21 10:00:22;;;;;;;14.38;9.20;;;1.20;99.90;;;;;;5094858;28;20024;-58
2021/12/21 10:02:48;;;;;;;13.13;8.90;;;1.40;99.90;;;;;;5095141;28;20369;-58
2021/12/21 10:05:18;;;;;;;17.50;10.70;;;1.60;99.90;;;;;;5095242;28;20454;-58
2021/12/21 10:07:55;;;;;;;13.60;7.70;;;1.70;99.90;;;;;;5095275;28;20024;-59
2021/12/21 10:10:21;;;;;;;11.50;7.53;;;1.90;99.90;;;;;;5077241;28;20028;-58
2021/12/21 10:12:47;;;;;;;11.50;7.03;;;2.10;99.90;;;;;;5095131;28;20124;-58
2021/12/21 10:15:23;;;;;;;10.52;6.63;;;2.40;99.90;;;;;;5094779;28;20119;-58
2021/12/21 10:17:58;;;;;;;9.55;6.63;;;2.80;99.90;;;;;;5094989;28;20044;-59
2021/12/21 10:20:34;;;;;;;9.52;5.82;;;3.40;99.90;;;;;;5094611;28;20071;-59
2021/12/21 10:23:07;;;;;;;10.52;7.13;;;4.30;99.90;;;;;;5095067;28;20020;-59
2021/12/21 10:25:32;;;;;;;13.18;6.60;;;4.90;99.90;;;;;;5076744;28;20517;-59
2021/12/21 10:27:58;;;;;;;11.23;7.18;;;5.70;99.40;;;;;;5094887;28;20031;-59
2021/12/21 10:30:23;;;;;;;11.10;6.72;;;6.60;98.40;;;;;;5094660;28;20073;-59
2021/12/21 10:32:54;;;;;;;14.55;7.60;;;7.10;97.40;;;;;;5094679;28;20085;-59
2021/12/21 10:35:29;;;;;;;11.00;7.60;;;7.30;97.10;;;;;;5094274;28;20480;-59
2021/12/21 10:37:55;;;;;;;11.30;7.80;;;7.80;97.00;;;;;;5094713;28;20031;-59
2021/12/21 10:40:28;;;;;;;10.95;8.23;;;8.00;96.50;;;;;;5076535;28;20024;-59
2021/12/21 10:42:53;;;;;;;13.02;8.13;;;8.20;96.30;;;;;;5093625;28;20024;-59
2021/12/21 10:45:26;;;;;;;12.13;8.70;;;8.10;96.10;;;;;;5094675;28;20032;-59
2021/12/21 10:47:52;;;;;;;14.68;9.15;;;8.10;96.40;;;;;;5094157;28;20031;-59
2021/12/21 10:50:18;;;;;;;14.57;9.93;;;8.20;96.60;;;;;;5094074;28;20027;-58
2021/12/21 10:52:56;;;;;;;14.65;9.68;;;8.40;96.40;;;;;;5094236;28;20350;-59
2021/12/21 10:55:36;;;;;;;15.05;9.65;;;8.50;96.00;;;;;;5094099;28;20020;-59
2021/12/21 10:58:15;;;;;;;14.25;10.27;;;9.00;95.80;;;;;;5094181;28;20024;-58
2021/12/21 11:00:50;;;;;;;17.23;10.10;;;9.50;95.00;;;;;;5093221;28;20035;-59
2021/12/21 11:03:17;;;;;;;14.38;9.88;;;9.70;94.20;;;;;;5094118;28;20028;-59
2021/12/21 11:05:46;;;;;;;14.40;8.80;;;9.60;94.00;;;;;;5093916;28;20024;-59
2021/12/21 11:08:24;;;;;;;14.57;10.07;;;9.50;94.20;;;;;;5093730;28;20472;-58
2021/12/21 11:10:51;;;;;;;13.75;8.73;;;9.40;94.40;;;;;;5094024;28;20046;-59
2021/12/21 11:13:17;;;;;;;14.82;9.45;;;9.70;94.60;;;;;;5094023;28;20047;-59
2021/12/21 11:15:52;;;;;;;13.55;9.40;;;10.10;94.00;;;;;;5094013;28;20476;-57
2021/12/21 11:18:18;;;;;;;11.70;8.88;;;10.40;93.50;;;;;;5093851;28;20031;-57
2021/12/21 11:20:48;;;;;;;13.25;9.23;;;10.70;93.10;;;;;;5073623;28;20109;-57
2021/12/21 11:23:15;;;;;;;13.07;8.70;;;11.20;92.60;;;;;;5093409;28;20111;-57
2021/12/21 11:25:43;;;;;;;13.15;8.75;;;11.80;91.80;;;;;;5093657;28;20039;-57
2021/12/21 11:28:13;;;;;;;13.30;10.05;;;12.20;91.00;;;;;;5093600;28;20051;-57
2021/12/21 11:30:40;;;;;;;12.40;9.52;;;12.60;90.20;;;;;;5093392;28;20020;-57
2021/12/21 11:33:07;;;;;;;17.33;10.73;;;12.60;89.20;;;;;;5093658;28;20028;-58
2021/12/21 11:38:03;;;;;;;13.60;9.95;;;12.90;87.80;;;;;;5093758;28;20031;-58
2021/12/21 11:40:38;;;;;;;14.50;10.05;;;13.50;86.60;;;;;;5092167;28;20032;-58
2021/12/21 11:43:22;;;;;;;13.45;9.48;;;14.00;84.70;;;;;;5071343;28;20127;-58
2021/12/21 11:46:00;;;;;;;14.27;9.00;;;14.70;82.80;;;;;;5092164;28;20016;-58
2021/12/21 11:48:45;;;;;;;12.98;9.35;;;15.50;80.60;;;;;;5092278;28;20110;-58
2021/12/21 11:51:13;;;;;;;11.75;7.57;;;16.50;78.30;;;;;;5089058;28;20012;-58
2021/12/21 11:53:39;;;;;;;11.38;7.47;;;17.60;75.60;;;;;;5092120;28;20107;-58
2021/12/21 11:56:06;;;;;;;10.75;7.90;;;18.80;72.10;;;;;;5088596;28;20095;-58
2021/12/21 11:58:42;;;;;;;10.63;7.72;;;20.20;68.40;;;;;;5090237;28;20531;-58
2021/12/21 12:01:16;;;;;;;10.65;8.05;;;21.60;63.80;;;;;;5089661;28;20496;-58
2021/12/21 12:03:54;;;;;;;10.27;7.30;;;22.60;59.50;;;;;;5091764;28;20055;-58
2021/12/21 12:06:20;;;;;;;10.05;7.90;;;23.50;56.90;;;;;;5090615;28;20066;-58
2021/12/21 12:08:54;;;;;;;9.77;7.05;;;24.10;53.90;;;;;;5091474;28;20036;-58
2021/12/21 12:11:24;;;;;;;9.98;7.05;;;24.60;53.00;;;;;;5091478;28;20475;-59
2021/12/21 12:13:50;;;;;;;8.82;7.57;;;25.30;51.30;;;;;;5091748;28;20024;-58
2021/12/21 12:16:17;;;;;;;11.35;7.72;;;25.90;49.70;;;;;;5086120;28;20487;-59
2021/12/21 12:18:49;;;;;;;10.15;7.63;;;26.50;48.00;;;;;;5091398;28;20039;-59
2021/12/21 12:21:24;;;;;;;9.45;7.28;;;27.00;46.90;;;;;;5091245;28;20059;-59
2021/12/21 12:23:54;;;;;;;11.35;8.73;;;27.50;45.60;;;;;;5088767;28;20016;-59
2021/12/21 12:26:29;;;;;;;8.45;7.15;;;27.80;44.60;;;;;;5091282;28;20414;-58
2021/12/21 12:28:57;;;;;;;9.55;7.32;;;28.20;43.50;;;;;;5091215;28;20463;-59
2021/12/21 12:31:33;;;;;;;12.27;7.73;;;28.40;42.80;;;;;;5064939;28;20024;-59
2021/12/21 12:33:59;;;;;;;9.43;7.30;;;28.70;42.00;;;;;;5091420;28;20954;-59
2021/12/21 12:36:50;;;;;;;8.45;7.60;;;28.80;41.20;;;;;;5088504;28;20020;-59
2021/12/21 12:39:29;;;;;;;8.85;7.40;;;29.00;40.50;;;;;;5090223;28;20044;-59
2021/12/21 12:42:05;;;;;;;8.52;6.82;;;29.00;40.00;;;;;;5085764;28;20035;-58
2021/12/21 12:44:31;;;;;;;11.02;7.70;;;29.00;39.80;;;;;;5091270;28;20436;-59
2021/12/21 12:47:03;;;;;;;9.27;7.55;;;29.20;39.40;;;;;;5086055;28;20016;-59
2021/12/21 12:49:32;;;;;;;8.77;6.93;;;29.40;38.80;;;;;;5086433;28;20494;-59
2021/12/21 12:52:15;;;;;;;9.57;7.72;;;29.60;38.30;;;;;;5089729;28;20020;-59
2021/12/21 12:54:49;;;;;;;10.80;8.20;;;29.60;37.80;;;;;;5065869;28;20020;-59
2021/12/21 12:57:31;;;;;;;9.13;6.90;;;29.60;37.40;;;;;;5090993;28;20071;-60
2021/12/21 13:00:11;;;;;;;11.70;8.30;;;29.70;37.70;;;;;;5091047;28;20020;-59
2021/12/21 13:02:37;;;;;;;9.75;7.60;;;29.60;36.70;;;;;;5090839;28;20085;-59
2021/12/21 13:05:08;;;;;;;11.05;8.90;;;29.80;36.80;;;;;;5090611;28;20020;-59
2021/12/21 13:07:34;;;;;;;11.30;9.10;;;30.00;36.30;;;;;;5083915;28;20056;-59
2021/12/21 13:10:05;;;;;;;9.98;8.32;;;29.80;36.00;;;;;;5090778;28;20548;-59
2021/12/21 13:12:34;;;;;;;10.20;8.73;;;29.80;35.70;;;;;;5088931;28;20024;-59
2021/12/21 13:15:00;;;;;;;9.93;8.60;;;29.80;35.60;;;;;;5091911;28;20149;-59
2021/12/21 13:17:26;;;;;;;10.63;8.77;;;29.70;35.30;;;;;;5094523;28;20028;-59
2021/12/21 13:19:51;;;;;;;10.02;8.55;;;29.60;35.10;;;;;;5095982;28;20453;-59
2021/12/21 13:22:25;;;;;;;12.70;9.57;;;29.60;35.10;;;;;;5095734;28;20506;-59
2021/12/21 13:24:54;;;;;;;9.35;8.32;;;29.40;35.00;;;;;;5095983;28;20058;-59
2021/12/21 13:27:23;;;;;;;11.60;10.20;;;29.30;34.90;;;;;;5095941;28;20024;-59
2021/12/21 13:29:49;;;;;;;12.15;10.85;;;29.20;34.90;;;;;;5095971;28;20476;-59
2021/12/21 13:32:18;;;;;;;12.65;11.35;;;29.10;34.90;;;;;;5091551;28;20514;-59
2021/12/21 13:34:45;;;;;;;12.93;11.00;;;28.90;34.80;;;;;;5091928;28;20021;-59
2021/12/21 13:37:13;;;;;;;11.23;10.00;;;28.70;34.80;;;;;;5089229;28;20022;-60
2021/12/21 13:39:45;;;;;;;11.65;9.57;;;28.50;34.70;;;;;;5092094;28;20024;-60
2021/12/21 13:42:19;;;;;;;11.90;10.70;;;28.30;34.60;;;;;;5094566;28;20069;-59
2021/12/21 13:44:52;;;;;;;13.57;10.93;;;27.90;34.80;;;;;;5094464;28;20069;-59
2021/12/21 13:47:21;;;;;;;14.18;9.55;;;27.70;34.90;;;;;;5094629;28;20050;-60
2021/12/21 13:50:06;;;;;;;15.43;11.13;;;27.60;35.00;;;;;;5094585;28;20353;-59
2021/12/21 13:52:44;;;;;;;10.45;9.25;;;27.40;35.00;;;;;;5072189;28;20020;-59